Time;durP1;ratioP1;P1;durP2;ratioP2;P2;SDS_P1;SDS_P2;PMS_P1;PMS_P2;Temp;Humidity;BMP_temperature;BMP_pressure;BME280_temperature;BME280_humidity;BME280_pressure;Samples;Min_cycle;Max_cycle;Signal;HPM_P1;HPM_P2
2021/08/24 00:00:31;;;;;;;19.25;13.62;;;;;;;17.39;100.00;99182.36;1712153;83;22151;-67
2021/08/24 00:03:01;;;;;;;21.20;14.20;;;;;;;17.40;100.00;99181.44;1712013;83;21451;-67
2021/08/24 00:05:33;;;;;;;21.17;14.20;;;;;;;17.39;100.00;99183.23;1705608;83;21460;-67
2021/08/24 00:08:02;;;;;;;26.02;16.10;;;;;;;17.41;100.00;99187.17;1710199;83;21031;-67
2021/08/24 00:10:37;;;;;;;22.35;14.53;;;;;;;17.41;100.00;99180.05;1711953;83;21460;-67
2021/08/24 00:13:08;;;;;;;23.35;14.93;;;;;;;17.43;100.00;99175.53;1711161;83;21946;-67
2021/08/24 00:15:37;;;;;;;24.37;14.83;;;;;;;17.45;100.00;99175.02;1711983;83;21035;-67
2021/08/24 00:18:05;;;;;;;23.62;16.48;;;;;;;17.45;100.00;99170.15;1701093;83;20985;-68
2021/08/24 00:20:34;;;;;;;20.70;14.35;;;;;;;17.43;100.00;99175.53;1711878;83;21009;-67
2021/08/24 00:23:11;;;;;;;22.45;14.98;;;;;;;17.42;100.00;99175.12;1711913;83;20965;-67
2021/08/24 00:25:38;;;;;;;21.52;14.47;;;;;;;17.39;100.00;99177.89;1711888;83;22198;-68
2021/08/24 00:28:07;;;;;;;21.35;14.73;;;;;;;17.38;100.00;99179.28;1712011;83;20994;-68
2021/08/24 00:30:40;;;;;;;29.57;15.30;;;;;;;17.39;100.00;99185.89;1711096;83;20909;-68
2021/08/24 00:33:09;;;;;;;20.02;14.68;;;;;;;17.41;100.00;99177.84;1711850;83;20987;-67
2021/08/24 00:35:39;;;;;;;22.40;13.98;;;;;;;17.39;100.00;99183.23;1712296;83;20972;-67
2021/08/24 00:38:13;;;;;;;21.48;13.98;;;;;;;17.39;100.00;99175.69;1712066;83;21129;-67
2021/08/24 00:40:42;;;;;;;23.38;15.03;;;;;;;17.37;100.00;99174.41;1711991;83;20905;-67
2021/08/24 00:43:14;;;;;;;25.52;15.78;;;;;;;17.34;100.00;99174.97;1698091;82;20960;-67
2021/08/24 00:45:43;;;;;;;;;;;;;;;17.29;100.00;99174.66;1711223;83;21500;-67
2021/08/24 00:48:12;;;;;;;23.00;14.75;;;;;;;17.27;100.00;99170.30;1712299;83;20113;-67
2021/08/24 00:50:45;;;;;;;24.50;16.20;;;;;;;17.25;100.00;99174.81;1712230;83;21814;-67
2021/08/24 00:53:16;;;;;;;24.00;15.53;;;;;;;17.20;100.00;99178.96;1710092;83;21015;-67
2021/08/24 00:55:45;;;;;;;21.48;14.45;;;;;;;17.18;100.00;99177.27;1711219;83;21013;-67
2021/08/24 00:58:16;;;;;;;22.42;15.05;;;;;;;17.19;100.00;99179.02;1683561;85;21036;-67
2021/08/24 01:00:47;;;;;;;25.75;14.87;;;;;;;17.22;100.00;99182.45;1689477;83;21021;-67
2021/08/24 01:03:22;;;;;;;22.22;16.02;;;;;;;17.24;100.00;99177.94;1711523;83;21515;-67
2021/08/24 01:05:54;;;;;;;21.20;15.25;;;;;;;17.26;100.00;99179.22;1699310;83;20901;-67
2021/08/24 01:08:46;;;;;;;22.90;15.13;;;;;;;17.27;100.00;99183.17;1692294;83;21200;-67
2021/08/24 01:11:35;;;;;;;28.25;16.93;;;;;;;17.26;100.00;99185.89;1712338;83;20968;-67
2021/08/24 01:14:24;;;;;;;23.00;15.98;;;;;;;17.19;100.00;99185.67;1711997;83;21630;-67
2021/08/24 01:17:15;;;;;;;22.45;15.58;;;;;;;17.12;100.00;99182.80;1711433;83;21239;-67
2021/08/24 01:19:58;;;;;;;25.02;15.88;;;;;;;17.12;100.00;99180.13;1716728;83;21070;-67
2021/08/24 01:22:53;;;;;;;26.10;15.43;;;;;;;17.16;100.00;99171.12;1717713;83;20999;-67
2021/08/24 01:25:30;;;;;;;23.30;14.98;;;;;;;17.18;100.00;99171.94;1717569;83;21498;-66
2021/08/24 01:28:12;;;;;;;21.62;15.18;;;;;;;17.18;100.00;99163.94;1717099;83;21325;-67
2021/08/24 01:31:21;;;;;;;21.77;14.38;;;;;;;17.17;100.00;99170.20;1717371;83;21921;-66
2021/08/24 01:34:22;;;;;;;20.43;13.62;;;;;;;17.16;100.00;99163.98;1717723;83;20908;-67
2021/08/24 01:36:52;;;;;;;18.82;13.95;;;;;;;17.15;100.00;99161.38;1717574;83;20964;-67
2021/08/24 01:39:30;;;;;;;20.70;13.62;;;;;;;17.16;100.00;99160.45;1716826;83;21028;-67
2021/08/24 01:42:22;;;;;;;19.75;13.58;;;;;;;17.16;100.00;99160.45;1693270;83;21463;-66
2021/08/24 01:45:15;;;;;;;21.55;14.03;;;;;;;17.16;100.00;99161.33;1713436;83;21116;-67
2021/08/24 01:47:57;;;;;;;22.62;13.65;;;;;;;17.20;100.00;99163.43;1688820;83;20995;-68
2021/08/24 01:50:49;;;;;;;21.40;13.78;;;;;;;17.21;100.00;99162.50;1715801;83;21005;-67
2021/08/24 01:53:27;;;;;;;21.73;14.00;;;;;;;17.18;100.00;99162.15;1717693;83;21439;-67
2021/08/24 01:56:08;;;;;;;23.95;13.38;;;;;;;17.14;100.00;99154.30;1717492;83;20964;-67
2021/08/24 01:58:42;;;;;;;17.92;12.70;;;;;;;17.09;100.00;99151.78;1716929;83;21148;-67
2021/08/24 02:01:14;;;;;;;19.30;13.20;;;;;;;17.05;100.00;99150.14;1715807;83;20939;-66
2021/08/24 02:03:46;;;;;;;20.95;12.95;;;;;;;17.01;100.00;99145.80;1717782;83;20916;-66
2021/08/24 02:06:17;;;;;;;;;;;;;;;16.94;100.00;99143.80;1720322;83;20997;-66
2021/08/24 02:08:49;;;;;;;23.62;12.90;;;;;;;16.91;100.00;99145.22;1688817;83;20098;-66
2021/08/24 02:11:19;;;;;;;18.65;13.25;;;;;;;16.86;100.00;99145.83;1714248;83;21142;-67
2021/08/24 02:13:49;;;;;;;19.40;12.95;;;;;;;16.80;100.00;99147.81;1709096;83;20917;-67
2021/08/24 02:16:24;;;;;;;19.60;13.68;;;;;;;16.80;100.00;99147.81;1701771;83;21455;-66
2021/08/24 02:19:08;;;;;;;18.37;13.00;;;;;;;16.74;100.00;99144.88;1715527;83;20886;-67
2021/08/24 02:21:41;;;;;;;19.00;13.05;;;;;;;16.74;100.00;99144.88;1712908;83;21656;-67
2021/08/24 02:24:14;;;;;;;21.62;13.78;;;;;;;16.70;100.00;99148.56;1691433;83;21129;-67
2021/08/24 02:26:43;;;;;;;31.27;14.15;;;;;;;16.70;100.00;99138.37;1715007;83;20992;-68
2021/08/24 02:29:11;;;;;;;21.07;14.35;;;;;;;16.69;100.00;99144.16;1700656;83;21068;-67
2021/08/24 02:31:52;;;;;;;24.77;14.07;;;;;;;16.67;100.00;99134.02;1701277;83;21535;-68
2021/08/24 02:34:59;;;;;;;21.35;12.95;;;;;;;16.66;100.00;99145.58;1713922;83;21456;-68
2021/08/24 02:37:42;;;;;;;23.73;13.98;;;;;;;16.66;100.00;99145.58;1715085;83;21125;-67
2021/08/24 02:40:49;;;;;;;18.50;12.88;;;;;;;16.65;100.00;99139.38;1714676;83;21021;-66
2021/08/24 02:43:36;;;;;;;20.80;13.58;;;;;;;16.63;100.00;99140.31;1714721;83;21034;-66
2021/08/24 02:46:12;;;;;;;21.70;13.72;;;;;;;16.59;100.00;99140.00;1699527;83;21084;-68
2021/08/24 02:48:42;;;;;;;20.00;14.15;;;;;;;16.49;100.00;99135.38;1704062;83;21055;-68
2021/08/24 02:51:15;;;;;;;19.70;13.35;;;;;;;16.49;100.00;99135.38;1691011;83;21562;-65
2021/08/24 02:53:51;;;;;;;18.77;13.62;;;;;;;16.48;100.00;99137.63;1714513;83;21048;-66
2021/08/24 02:56:20;;;;;;;25.43;14.50;;;;;;;16.49;100.00;99138.05;1658523;85;20984;-66
2021/08/24 02:58:49;;;;;;;19.95;14.25;;;;;;;16.54;100.00;99136.58;1706373;83;21510;-66
2021/08/24 03:01:20;;;;;;;;;;;;;;;16.56;100.00;99136.97;1717159;83;21427;-67
2021/08/24 03:03:50;;;;;;;20.15;13.83;;;;;;;16.59;100.00;99136.01;1714597;83;21982;-66
2021/08/24 03:06:21;;;;;;;22.37;14.05;;;;;;;16.60;100.00;99146.61;1714474;83;20946;-66
2021/08/24 03:08:51;;;;;;;24.25;13.58;;;;;;;16.59;100.00;99139.55;1693579;83;21491;-66
2021/08/24 03:11:23;;;;;;;22.32;14.28;;;;;;;16.61;100.00;99138.16;1712995;83;21470;-66
2021/08/24 03:14:08;;;;;;;18.12;12.95;;;;;;;16.59;100.00;99132.88;1667351;84;20999;-67
2021/08/24 03:16:50;;;;;;;19.55;13.05;;;;;;;16.57;100.00;99135.18;1710380;83;22111;-67
2021/08/24 03:19:22;;;;;;;24.80;13.13;;;;;;;16.58;100.00;99135.59;1711712;83;20951;-68
2021/08/24 03:21:51;;;;;;;22.05;12.55;;;;;;;16.59;100.00;99134.67;1710515;83;20957;-66
2021/08/24 03:24:19;;;;;;;31.68;14.40;;;;;;;16.56;100.00;99128.11;1667816;85;21544;-67
2021/08/24 03:26:47;;;;;;;19.27;12.50;;;;;;;16.50;100.00;99123.81;1672152;85;20958;-66
2021/08/24 03:29:19;;;;;;;18.32;12.68;;;;;;;16.48;100.00;99136.30;1674993;85;21182;-66
2021/08/24 03:31:55;;;;;;;17.62;12.25;;;;;;;16.47;100.00;99131.89;1707060;83;21536;-66
2021/08/24 03:34:24;;;;;;;16.87;12.33;;;;;;;16.46;100.00;99138.59;1674343;85;20952;-68
2021/08/24 03:36:53;;;;;;;23.75;13.05;;;;;;;16.47;100.00;99147.87;1646606;85;21474;-67
2021/08/24 03:39:21;;;;;;;20.60;12.28;;;;;;;16.47;100.00;99147.87;1711834;83;20929;-66
2021/08/24 03:41:51;;;;;;;20.05;12.63;;;;;;;16.49;100.00;99146.49;1711149;83;21444;-66
2021/08/24 03:44:20;;;;;;;21.57;12.07;;;;;;;16.48;100.00;99146.95;1710891;83;20944;-67
2021/08/24 03:46:49;;;;;;;16.25;11.20;;;;;;;16.48;100.00;99151.41;1702754;83;21022;-67
2021/08/24 03:49:18;;;;;;;17.57;11.97;;;;;;;16.48;100.00;99154.06;1711160;83;20941;-67
2021/08/24 03:51:47;;;;;;;15.38;11.83;;;;;;;16.46;100.00;99144.80;1711819;83;21086;-67
2021/08/24 03:54:16;;;;;;;17.07;12.28;;;;;;;16.48;100.00;99142.95;1712086;83;21754;-66
2021/08/24 03:56:45;;;;;;;16.32;11.22;;;;;;;16.49;100.00;99144.70;1711585;83;21008;-67
2021/08/24 03:59:14;;;;;;;43.10;13.85;;;;;;;16.53;100.00;99146.81;1709396;83;21597;-67
2021/08/24 04:01:42;;;;;;;28.83;12.90;;;;;;;16.60;100.00;99145.73;1703133;83;21004;-67
2021/08/24 04:04:11;;;;;;;20.70;12.03;;;;;;;16.64;100.00;99146.92;1711941;83;20997;-67
2021/08/24 04:06:41;;;;;;;16.97;11.83;;;;;;;16.68;100.00;99141.08;1711658;83;20944;-66
2021/08/24 04:09:11;;;;;;;17.40;10.93;;;;;;;16.74;100.00;99140.89;1711858;83;20918;-67
2021/08/24 04:11:39;;;;;;;18.60;11.88;;;;;;;16.79;100.00;99133.63;1711976;83;20969;-71
2021/08/24 04:14:08;;;;;;;17.80;11.57;;;;;;;16.82;100.00;99133.53;1710487;83;21029;-65
2021/08/24 04:16:37;;;;;;;39.58;12.80;;;;;;;16.83;100.00;99126.41;1709995;83;21517;-67
2021/08/24 04:19:05;;;;;;;19.73;11.00;;;;;;;16.84;100.00;99129.02;1702998;83;21105;-66
2021/08/24 04:21:37;;;;;;;23.65;11.75;;;;;;;16.90;100.00;99135.48;1703127;83;20932;-66
2021/08/24 04:24:07;;;;;;;21.87;11.68;;;;;;;16.98;100.00;99137.45;1711493;83;21000;-66
2021/08/24 04:26:35;;;;;;;16.48;11.57;;;;;;;17.05;100.00;99139.95;1710506;83;21017;-66
2021/08/24 04:29:03;;;;;;;18.85;12.25;;;;;;;17.08;100.00;99139.37;1711162;83;20929;-69
2021/08/24 04:31:36;;;;;;;18.37;12.33;;;;;;;17.13;100.00;99139.23;1697111;83;21142;-69
2021/08/24 04:34:05;;;;;;;18.75;12.23;;;;;;;17.16;100.00;99141.80;1711693;83;21068;-66
2021/08/24 04:36:35;;;;;;;19.80;12.55;;;;;;;17.17;100.00;99137.75;1710079;83;21633;-67
2021/08/24 04:39:05;;;;;;;16.42;12.07;;;;;;;17.17;100.00;99139.55;1710840;83;20992;-66
2021/08/24 04:41:33;;;;;;;14.25;10.95;;;;;;;17.12;100.00;99133.49;1710360;83;21512;-67
2021/08/24 04:44:01;;;;;;;15.70;10.90;;;;;;;17.08;100.00;99139.37;1710240;83;21060;-67
2021/08/24 04:46:30;;;;;;;15.10;11.10;;;;;;;17.07;100.00;99138.97;1711506;83;20989;-70
2021/08/24 04:48:58;;;;;;;14.43;10.60;;;;;;;17.10;100.00;99136.67;1711607;83;21000;-63
2021/08/24 04:51:27;;;;;;;18.02;11.30;;;;;;;17.13;100.00;99132.11;1711031;83;21048;-64
2021/08/24 04:53:56;;;;;;;16.77;10.95;;;;;;;17.17;100.00;99134.20;1707672;83;21558;-63
2021/08/24 04:56:25;;;;;;;30.92;13.43;;;;;;;17.20;100.00;99127.44;1695175;83;21986;-65
2021/08/24 04:58:53;;;;;;;14.98;10.85;;;;;;;17.21;100.00;99132.72;1711531;83;21138;-63
2021/08/24 05:01:21;;;;;;;21.40;11.45;;;;;;;17.21;100.00;99133.19;1711952;83;20965;-63
2021/08/24 05:03:49;;;;;;;17.60;10.30;;;;;;;17.26;100.00;99131.23;1711494;83;20988;-63
2021/08/24 05:06:18;;;;;;;11.60;9.20;;;;;;;17.34;100.00;99131.84;1711818;83;21504;-64
2021/08/24 05:08:47;;;;;;;12.23;8.95;;;;;;;17.41;100.00;99125.84;1693668;83;21199;-65
2021/08/24 05:11:14;;;;;;;14.40;9.35;;;;;;;17.50;100.00;99125.10;1704360;83;21011;-63
2021/08/24 05:13:42;;;;;;;12.37;8.80;;;;;;;17.59;100.00;99132.78;1686111;85;21360;-64
2021/08/24 05:16:11;;;;;;;13.38;9.60;;;;;;;17.70;100.00;99133.77;1696848;83;20913;-63
2021/08/24 05:18:39;;;;;;;11.10;8.88;;;;;;;17.78;100.00;99126.37;1693382;83;21787;-65
2021/08/24 05:21:13;;;;;;;16.50;9.63;;;;;;;17.86;100.00;99123.42;1678016;85;21168;-63
2021/08/24 05:23:41;;;;;;;18.30;10.58;;;;;;;17.95;100.00;99127.09;1636996;87;21494;-62
2021/08/24 05:26:12;;;;;;;16.07;9.90;;;;;;;18.06;100.00;99132.06;1665241;85;21514;-62
2021/08/24 05:28:40;;;;;;;16.57;9.65;;;;;;;18.16;100.00;99130.34;1651546;86;20883;-61
2021/08/24 05:31:08;;;;;;;62.25;12.98;;;;;;;18.29;100.00;99135.22;1662929;85;21074;-62
2021/08/24 05:33:38;;;;;;;19.02;9.75;;;;;;;18.36;100.00;99124.24;1662964;85;21796;-62
2021/08/24 05:36:05;;;;;;;18.00;9.05;;;;;;;18.44;100.00;99119.48;1661517;85;21039;-65
2021/08/24 05:38:33;;;;;;;13.53;8.08;;;;;;;18.53;100.00;99118.28;1664364;86;20955;-69
2021/08/24 05:41:04;;;;;;;14.58;8.98;;;;;;;18.63;100.00;99113.02;1665453;85;20969;-66
2021/08/24 05:43:32;;;;;;;16.90;9.53;;;;;;;18.72;100.00;99119.33;1642261;86;21019;-62
2021/08/24 05:46:07;;;;;;;14.65;8.15;;;;;;;18.83;100.00;99120.23;1660739;86;21096;-66
2021/08/24 05:48:36;;;;;;;12.35;8.33;;;;;;;18.92;100.00;99115.89;1665104;84;20944;-62
2021/08/24 05:51:09;;;;;;;12.23;8.40;;;;;;;19.02;100.00;99119.06;1665361;85;20990;-63
2021/08/24 05:53:39;;;;;;;12.55;8.15;;;;;;;19.10;100.00;99112.94;1680877;85;20904;-60
2021/08/24 05:56:15;;;;;;;17.82;9.85;;;;;;;19.18;100.00;99109.00;1633444;87;21011;-68
2021/08/24 05:58:44;;;;;;;11.43;7.30;;;;;;;19.28;100.00;99113.50;1631485;86;22075;-60
2021/08/24 06:01:18;;;;;;;13.35;7.80;;;;;;;19.37;100.00;99102.41;1635868;87;20992;-61
2021/08/24 06:03:46;;;;;;;14.55;8.30;;;;;;;19.50;100.00;99104.13;1649072;86;21585;-63
2021/08/24 06:06:35;;;;;;;13.83;7.50;;;;;;;19.59;100.00;99101.09;1666353;85;20995;-63
2021/08/24 06:09:05;;;;;;;11.95;7.72;;;;;;;19.67;100.00;99102.09;1646548;86;21539;-62
2021/08/24 06:11:39;;;;;;;13.18;7.53;;;;;;;19.77;100.00;99097.59;1660832;86;21152;-62
2021/08/24 06:14:07;;;;;;;113.85;12.63;;;;;;;19.89;100.00;99107.39;1662284;86;20937;-62
2021/08/24 06:19:31;;;;;;;14.40;6.95;;;;;;;20.04;100.00;99104.02;1669952;85;21791;-61
2021/08/24 06:22:00;;;;;;;17.40;7.65;;;;;;;20.15;100.00;99098.18;1668532;85;20966;-61
2021/08/24 06:24:30;;;;;;;10.30;6.78;;;;;;;20.23;100.00;99101.37;1683784;85;21175;-60
2021/08/24 06:26:58;;;;;;;9.18;5.72;;;;;;;20.35;100.00;99103.05;1683885;85;20918;-60
2021/08/24 06:29:26;;;;;;;10.78;6.75;;;;;;;20.44;100.00;99101.77;1683896;85;20950;-60
2021/08/24 06:31:59;;;;;;;10.28;5.60;;;;;;;20.54;100.00;99103.08;1683898;85;20922;-61
2021/08/24 06:34:24;;;;;;;9.15;5.08;;;;;;;20.66;100.00;99094.92;1728940;82;21507;-62
2021/08/24 06:36:52;;;;;;;11.60;5.17;;;;;;;20.77;100.00;99099.30;1714602;83;21234;-67
2021/08/24 06:39:20;;;;;;;11.75;5.12;;;;;;;20.88;100.00;99100.14;1705113;83;21054;-68
2021/08/24 06:41:48;;;;;;;8.15;5.20;;;;;;;20.97;100.00;99099.22;1702064;83;21043;-69
2021/08/24 06:44:17;;;;;;;9.70;4.65;;;;;;;21.09;100.00;99089.70;1701612;83;20987;-69
2021/08/24 06:46:46;;;;;;;10.58;5.35;;;;;;;21.20;100.00;99093.19;1700968;83;20968;-69
2021/08/24 06:49:16;;;;;;;13.55;4.42;;;;;;;21.31;100.00;99089.08;1662000;85;21449;-67
2021/08/24 06:51:45;;;;;;;12.33;4.50;;;;;;;21.45;100.00;99090.19;1703038;84;21143;-68
2021/08/24 06:54:12;;;;;;;10.20;4.58;;;;;;;21.53;100.00;99089.31;1717447;83;20943;-68
2021/08/24 06:56:41;;;;;;;8.73;4.30;;;;;;;21.63;100.00;99092.79;1707342;84;20923;-68
2021/08/24 06:59:09;;;;;;;28.62;5.95;;;;;;;21.74;100.00;99092.22;1707990;84;20940;-68
2021/08/24 07:01:38;;;;;;;8.43;4.90;;;;;;;21.85;100.00;99091.69;1715420;83;21526;-69
2021/08/24 07:04:07;;;;;;;58.28;6.67;;;;;;;21.95;100.00;99101.86;1680939;85;21041;-69
2021/08/24 07:06:36;;;;;;;10.72;4.55;;;;;;;22.03;100.00;99098.80;1651401;85;21121;-69
2021/08/24 07:09:04;;;;;;;10.72;4.28;;;;;;;22.13;100.00;99099.17;1703048;83;20976;-69
2021/08/24 07:11:31;;;;;;;12.55;4.92;;;;;;;22.25;100.00;99102.56;1672175;85;21058;-68
2021/08/24 07:14:00;;;;;;;8.98;4.50;;;;;;;22.36;98.34;99104.19;1651091;87;21247;-69
2021/08/24 07:16:29;;;;;;;7.92;4.08;;;;;;;22.46;96.70;99099.17;1715737;83;21067;-68
2021/08/24 07:18:59;;;;;;;17.80;4.97;;;;;;;22.52;97.76;99101.52;1682127;84;32664;-68
2021/08/24 07:21:27;;;;;;;14.00;5.00;;;;;;;22.62;97.53;99096.89;1652600;86;20984;-68
2021/08/24 07:23:57;;;;;;;9.23;4.25;;;;;;;22.72;96.09;99100.44;1681439;84;20907;-67
2021/08/24 07:26:28;;;;;;;13.35;4.10;;;;;;;22.84;95.79;99095.73;1669436;85;21750;-67
2021/08/24 07:28:56;;;;;;;24.00;4.00;;;;;;;22.98;94.74;99100.33;1660136;86;20909;-68
2021/08/24 07:31:24;;;;;;;46.60;4.47;;;;;;;23.12;88.58;99101.74;1655772;85;21025;-68
2021/08/24 07:33:53;;;;;;;26.97;4.37;;;;;;;23.24;85.41;99109.13;1669152;86;21063;-67
2021/08/24 07:36:20;;;;;;;27.42;4.78;;;;;;;23.35;82.54;99098.60;1669684;85;21560;-68
2021/08/24 07:38:48;;;;;;;23.55;4.62;;;;;;;23.45;81.99;99101.14;1673433;84;21125;-67
2021/08/24 07:41:17;;;;;;;14.73;3.40;;;;;;;23.49;76.25;99097.78;1652356;85;20975;-68
2021/08/24 07:43:44;;;;;;;26.80;4.20;;;;;;;23.51;73.78;99095.38;1674502;84;20950;-67
2021/08/24 07:46:12;;;;;;;13.93;3.62;;;;;;;23.54;74.19;99090.30;1672355;85;21000;-67
2021/08/24 07:48:40;;;;;;;14.00;3.30;;;;;;;23.61;76.02;99099.77;1672681;85;21042;-67
2021/08/24 07:51:08;;;;;;;7.25;2.90;;;;;;;23.71;72.86;99094.25;1679461;85;21159;-67
2021/08/24 07:53:35;;;;;;;6.30;2.90;;;;;;;23.75;72.11;99113.78;1697757;84;20911;-67
2021/08/24 07:56:06;;;;;;;3.47;2.85;;;;;;;23.72;69.42;99104.06;1641696;86;21093;-67
2021/08/24 07:58:34;;;;;;;5.20;2.85;;;;;;;23.70;70.83;99101.08;1672878;85;20922;-68
2021/08/24 08:01:02;;;;;;;9.48;3.55;;;;;;;23.70;70.39;99100.59;1695703;84;21501;-67
2021/08/24 08:03:30;;;;;;;5.80;2.90;;;;;;;23.70;70.62;99095.20;1654093;85;21180;-67
2021/08/24 08:05:58;;;;;;;6.37;3.02;;;;;;;23.71;70.65;99087.99;1683245;84;20924;-67
2021/08/24 08:08:26;;;;;;;4.92;2.67;;;;;;;23.74;71.45;99092.72;1653823;85;21019;-68
2021/08/24 08:10:56;;;;;;;103.47;12.23;;;;;;;23.78;71.30;99095.61;1672696;85;21014;-67
2021/08/24 08:13:24;;;;;;;6.83;3.00;;;;;;;23.83;73.56;99093.50;1687304;85;20889;-67
2021/08/24 08:15:52;;;;;;;4.35;2.72;;;;;;;24.00;72.27;99092.94;1696193;83;21211;-67
2021/08/24 08:18:20;;;;;;;8.75;3.08;;;;;;;24.16;71.39;99091.92;1676528;84;21437;-67
2021/08/24 08:20:48;;;;;;;10.68;2.80;;;;;;;24.37;70.92;99096.95;1653088;85;21692;-67
2021/08/24 08:23:17;;;;;;;5.37;2.50;;;;;;;24.56;67.64;99084.03;1644839;87;21050;-67
2021/08/24 08:25:45;;;;;;;5.45;2.60;;;;;;;24.68;65.64;99090.50;1644102;87;21055;-67
2021/08/24 08:28:13;;;;;;;5.78;2.70;;;;;;;24.80;65.37;99089.70;1698820;84;21806;-66
2021/08/24 08:30:44;;;;;;;8.20;3.08;;;;;;;24.93;65.96;99077.62;1696523;84;20998;-68
2021/08/24 08:33:13;;;;;;;4.00;3.08;;;;;;;25.01;62.09;99069.91;1688707;84;20946;-67
2021/08/24 08:35:41;;;;;;;7.85;2.83;;;;;;;25.10;63.38;99073.38;1700935;84;21051;-67
2021/08/24 08:38:09;;;;;;;5.60;3.15;;;;;;;25.17;64.70;99075.19;1679453;84;21599;-68
2021/08/24 08:40:54;;;;;;;8.18;2.75;;;;;;;25.30;64.19;99072.03;1648148;86;21470;-67
2021/08/24 08:43:44;;;;;;;5.55;2.70;;;;;;;25.42;61.44;99067.16;1672621;85;20910;-68
2021/08/24 08:46:30;;;;;;;4.12;2.67;;;;;;;25.57;61.70;99068.84;1672679;85;20879;-68
2021/08/24 08:49:30;;;;;;;8.25;3.02;;;;;;;25.65;58.35;99062.42;1672302;85;21018;-68
2021/08/24 08:52:23;;;;;;;10.82;3.00;;;;;;;25.70;58.67;99061.64;1669612;85;21006;-68
2021/08/24 08:55:15;;;;;;;8.08;3.15;;;;;;;25.81;58.56;99062.73;1670182;85;21438;-67
2021/08/24 08:58:28;;;;;;;6.20;3.00;;;;;;;25.90;58.42;99058.03;1668805;85;20945;-68
2021/08/24 09:00:55;;;;;;;6.67;2.95;;;;;;;25.97;57.58;99055.28;1657184;83;21099;-69
2021/08/24 09:03:49;;;;;;;6.28;3.67;;;;;;;26.01;58.15;99059.04;1686922;84;20984;-69
2021/08/24 09:06:16;;;;;;;4.78;3.00;;;;;;;26.01;57.43;99049.58;1688849;83;21086;-67
2021/08/24 09:08:45;;;;;;;9.68;3.02;;;;;;;26.10;58.74;99046.70;1687135;83;21091;-67
2021/08/24 09:11:12;;;;;;;7.47;3.12;;;;;;;26.22;57.47;99052.59;1698179;83;20964;-67
2021/08/24 09:13:56;;;;;;;9.98;3.77;;;;;;;26.29;54.95;99034.95;1715701;83;21515;-66
2021/08/24 09:16:41;;;;;;;108.27;11.12;;;;;;;26.36;54.02;99042.16;1715370;83;20972;-67
2021/08/24 09:19:18;;;;;;;10.95;3.70;;;;;;;26.46;54.18;99043.22;1718904;83;20937;-68
2021/08/24 09:21:48;;;;;;;7.60;3.50;;;;;;;26.54;53.54;99044.05;1720031;82;22728;-68
2021/08/24 09:24:21;;;;;;;8.78;3.83;;;;;;;26.53;52.21;99042.31;1715504;83;21455;-68
2021/08/24 09:27:24;;;;;;;6.95;3.98;;;;;;;26.52;50.85;99044.64;1717838;82;21579;-68
2021/08/24 09:29:52;;;;;;;6.72;3.77;;;;;;;26.50;49.86;99041.19;1721928;83;20990;-68
2021/08/24 09:32:24;;;;;;;7.70;4.12;;;;;;;26.52;51.23;99042.80;1722135;83;21539;-68
2021/08/24 09:34:55;;;;;;;8.70;4.62;;;;;;;26.60;50.45;99031.41;1722394;83;21135;-68
2021/08/24 09:37:23;;;;;;;8.40;4.95;;;;;;;26.70;50.50;99032.47;1692259;83;21622;-68
2021/08/24 09:40:00;;;;;;;8.18;4.10;;;;;;;26.77;50.31;99031.03;1721986;83;21040;-68
2021/08/24 09:42:37;;;;;;;6.28;3.80;;;;;;;26.78;49.34;99025.13;1717471;83;20976;-63
2021/08/24 09:45:22;;;;;;;13.90;3.83;;;;;;;26.84;51.49;99015.20;1706152;83;20877;-68
2021/08/24 09:48:01;;;;;;;6.12;3.80;;;;;;;26.93;49.96;99024.84;1693812;83;21780;-68
2021/08/24 09:50:42;;;;;;;6.35;3.37;;;;;;;27.04;48.77;99019.17;1700706;83;20976;-68
2021/08/24 09:53:34;;;;;;;9.85;3.47;;;;;;;27.11;49.56;99020.44;1674791;83;20940;-68
2021/08/24 09:56:07;;;;;;;5.87;3.63;;;;;;;27.23;50.49;99016.79;1722277;83;20917;-69
2021/08/24 09:58:42;;;;;;;7.33;3.30;;;;;;;27.31;49.55;99025.19;1706630;83;20916;-68
2021/08/24 10:01:13;;;;;;;6.35;2.83;;;;;;;27.31;47.59;99017.55;1721478;83;21091;-68
2021/08/24 10:03:44;;;;;;;4.85;2.60;;;;;;;27.31;47.56;99021.12;1701767;82;20965;-68
2021/08/24 10:06:36;;;;;;;43.95;3.95;;;;;;;27.35;47.34;99018.55;1675744;83;21040;-66
2021/08/24 10:09:34;;;;;;;7.10;2.70;;;;;;;27.42;46.18;99023.88;1672329;83;21052;-67
2021/08/24 10:12:25;;;;;;;7.22;3.02;;;;;;;27.44;46.34;99011.59;1704638;83;21507;-68
2021/08/24 10:14:56;;;;;;;7.10;2.87;;;;;;;27.54;47.24;99009.89;1691759;84;20968;-66
2021/08/24 10:17:31;;;;;;;7.37;2.58;;;;;;;27.60;46.05;99006.70;1692945;84;20988;-68
2021/08/24 10:19:59;;;;;;;4.33;2.72;;;;;;;27.65;46.23;99008.59;1698973;83;20969;-68
2021/08/24 10:22:35;;;;;;;5.20;2.55;;;;;;;27.67;45.80;99011.19;1672591;83;21059;-68
2021/08/24 10:25:10;;;;;;;5.58;2.67;;;;;;;27.70;44.97;99005.03;1722277;83;20909;-69
2021/08/24 10:27:44;;;;;;;6.62;2.67;;;;;;;27.75;44.34;99006.02;1709797;82;21877;-69
2021/08/24 10:30:16;;;;;;;14.73;3.30;;;;;;;27.83;44.41;99003.57;1696866;83;20960;-67
2021/08/24 10:32:48;;;;;;;5.70;2.35;;;;;;;27.88;43.83;98995.44;1667992;83;20869;-68
2021/08/24 10:35:25;;;;;;;6.95;3.15;;;;;;;27.93;44.25;98991.05;1721090;83;21424;-68
2021/08/24 10:37:54;;;;;;;5.72;2.92;;;;;;;28.03;44.46;98992.52;1702307;83;21195;-68
2021/08/24 10:40:29;;;;;;;4.03;2.50;;;;;;;28.13;44.14;98994.86;1694989;83;21057;-69
2021/08/24 10:43:14;;;;;;;4.70;2.20;;;;;;;28.16;44.48;98993.26;1696296;83;21048;-71
2021/08/24 10:45:45;;;;;;;4.95;2.40;;;;;;;28.20;43.32;98992.02;1716834;83;21546;-69
2021/08/24 10:48:20;;;;;;;3.77;2.22;;;;;;;28.12;43.38;98985.86;1704579;83;20933;-68
2021/08/24 10:51:02;;;;;;;7.45;2.65;;;;;;;28.10;42.92;98985.13;1699100;83;21031;-68
2021/08/24 10:54:14;;;;;;;14.68;3.77;;;;;;;28.04;42.97;98991.53;1709307;83;21154;-67
2021/08/24 10:56:57;;;;;;;3.83;2.40;;;;;;;27.91;43.23;98987.59;1693588;83;20893;-68
2021/08/24 10:59:55;;;;;;;5.90;2.73;;;;;;;27.83;43.18;98992.23;1722231;83;21668;-68
2021/08/24 11:02:51;;;;;;;4.30;2.50;;;;;;;27.80;44.03;98987.55;1721951;83;20965;-68
2021/08/24 11:05:39;;;;;;;5.92;2.40;;;;;;;27.72;44.30;98990.87;1721993;83;21072;-68
2021/08/24 11:08:26;;;;;;;7.75;2.90;;;;;;;27.56;44.13;98988.96;1722162;82;21940;-73
2021/08/24 11:11:06;;;;;;;6.83;2.90;;;;;;;27.48;45.70;98992.77;1716823;83;21595;-68
2021/08/24 11:14:15;;;;;;;5.50;2.55;;;;;;;27.40;45.29;98985.20;1717403;83;21479;-68
2021/08/24 11:17:17;;;;;;;7.10;3.00;;;;;;;27.35;45.31;98982.48;1695891;83;20973;-69
2021/08/24 11:20:22;;;;;;;4.95;2.80;;;;;;;27.36;45.46;98974.23;1719245;83;21476;-68
2021/08/24 11:23:25;;;;;;;4.45;2.72;;;;;;;27.48;47.00;98969.73;1718046;83;23082;-67
2021/08/24 11:26:00;;;;;;;4.37;3.00;;;;;;;27.75;46.53;98970.80;1702582;83;21031;-68
2021/08/24 11:28:52;;;;;;;4.80;2.67;;;;;;;28.00;46.00;98962.45;1703992;83;21117;-67
2021/08/24 11:31:43;;;;;;;21.97;3.00;;;;;;;28.15;45.62;98958.50;1709676;82;21111;-68
2021/08/24 11:34:26;;;;;;;4.58;2.52;;;;;;;28.26;44.70;98954.94;1688195;84;20877;-68
2021/08/24 11:36:58;;;;;;;7.00;3.20;;;;;;;28.36;44.27;98957.27;1694690;83;21146;-67
2021/08/24 11:39:31;;;;;;;9.48;3.72;;;;;;;28.44;44.44;98964.80;1721659;83;20913;-65
2021/08/24 11:42:02;;;;;;;11.30;4.20;;;;;;;28.51;43.73;98955.16;1696585;83;21039;-67
2021/08/24 11:44:41;;;;;;;6.15;2.90;;;;;;;28.56;43.28;98952.94;1669762;83;21221;-67
2021/08/24 11:47:15;;;;;;;4.37;2.95;;;;;;;28.53;43.31;98959.97;1702423;83;20961;-66
2021/08/24 11:49:59;;;;;;;4.53;2.98;;;;;;;28.45;42.58;98950.25;1722229;82;20912;-67
2021/08/24 11:52:49;;;;;;;4.42;3.05;;;;;;;28.43;42.67;98950.88;1702174;84;20895;-67
2021/08/24 11:55:28;;;;;;;4.33;3.20;;;;;;;28.44;43.04;98944.45;1702655;84;20863;-65